Terminal Aerodrome Forecast
Issued by NWS

Home | Current Version | Previous Version | Text Only | Print | Product List | Glossary On
Versions: 1 2 3 4 5 6 7 8 9 10 11 12 13 14 15 16 17 18 19 20 21 22 23 24 25 26 27 28 29
000
FTUS44 KFWD 102306 AAC
TAFGKY
TAF AMD
KGKY 102306Z 1023/1118 18015KT P6SM OVC025
     FM110600 18018KT P6SM OVC012
      TEMPO 1109/1113 5SM -DZ BR BKN008
     FM111600 20020G30KT P6SM BKN020=

USA.gov is the U.S. government's official web portal to all federal, state and local government web resources and services.